Time;durP1;ratioP1;P1;durP2;ratioP2;P2;SDS_P1;SDS_P2;PMS_P1;PMS_P2;Temp;Humidity;BMP_temperature;BMP_pressure;BME280_temperature;BME280_humidity;BME280_pressure;Samples;Min_cycle;Max_cycle;Signal;HPM_P1;HPM_P2
2023/08/29 00:00:32;;;;;;;6.20;2.58;;;23.00;94.50;;;;;;4110661;28;20055;-66
2023/08/29 00:02:40;;;;;;;7.00;2.80;;;23.00;94.60;;;;;;4111837;28;20047;-65
2023/08/29 00:04:41;;;;;;;7.05;3.03;;;22.90;94.70;;;;;;4111486;28;20098;-66
2023/08/29 00:06:42;;;;;;;3.47;2.80;;;22.90;94.90;;;;;;4111624;28;20131;-65
2023/08/29 00:08:43;;;;;;;5.30;3.13;;;22.80;94.90;;;;;;4111115;28;20031;-65
2023/08/29 00:10:44;;;;;;;4.20;2.70;;;22.80;95.00;;;;;;4111607;28;20027;-65
2023/08/29 00:12:46;;;;;;;6.53;3.05;;;22.80;94.90;;;;;;4111377;28;20039;-65
2023/08/29 00:14:47;;;;;;;3.67;2.88;;;22.70;95.00;;;;;;4111230;28;20097;-67
2023/08/29 00:16:48;;;;;;;6.00;2.58;;;22.70;95.00;;;;;;4112336;28;20031;-64
2023/08/29 00:18:49;;;;;;;4.65;2.60;;;22.80;95.00;;;;;;4111396;28;20035;-63
2023/08/29 00:20:51;;;;;;;5.88;2.95;;;22.90;94.90;;;;;;4111643;28;20054;-62
2023/08/29 00:22:52;;;;;;;4.00;2.70;;;22.90;94.80;;;;;;4111108;28;20427;-64
2023/08/29 00:24:53;;;;;;;6.30;3.10;;;22.90;95.00;;;;;;4112300;28;20112;-62
2023/08/29 00:26:54;;;;;;;4.85;2.63;;;22.90;94.80;;;;;;4110857;28;20039;-66
2023/08/29 00:28:55;;;;;;;4.50;2.70;;;23.00;94.70;;;;;;4112003;28;20035;-65
2023/08/29 00:30:56;;;;;;;5.03;2.80;;;23.00;94.70;;;;;;4111185;28;20044;-65
2023/08/29 00:32:57;;;;;;;7.63;3.00;;;23.00;94.80;;;;;;4111265;28;20062;-64
2023/08/29 00:34:58;;;;;;;4.72;3.20;;;23.00;94.80;;;;;;4111606;28;20034;-65
2023/08/29 00:36:59;;;;;;;4.13;2.60;;;23.10;94.80;;;;;;4114093;28;20070;-64
2023/08/29 00:39:01;;;;;;;6.75;3.15;;;23.10;94.80;;;;;;4114453;28;20169;-66
2023/08/29 00:41:02;;;;;;;5.80;2.83;;;23.00;94.90;;;;;;4113459;28;20503;-64
2023/08/29 00:43:03;;;;;;;3.78;2.88;;;23.10;94.90;;;;;;4114671;28;20022;-65
2023/08/29 00:45:05;;;;;;;4.68;2.80;;;23.10;94.90;;;;;;4113897;28;20471;-62
2023/08/29 00:47:06;;;;;;;5.30;2.92;;;23.10;95.00;;;;;;4115144;28;20030;-66
2023/08/29 00:49:08;;;;;;;5.68;2.85;;;23.00;95.00;;;;;;4113375;28;20051;-64
2023/08/29 00:51:09;;;;;;;7.82;3.40;;;23.00;95.00;;;;;;4114479;28;20043;-65
2023/08/29 00:53:13;;;;;;;4.72;3.08;;;23.00;95.10;;;;;;4113632;28;20385;-64
2023/08/29 00:55:15;;;;;;;11.07;3.97;;;23.00;95.20;;;;;;4114909;28;20085;-61
2023/08/29 00:57:17;;;;;;;4.93;3.20;;;22.90;95.20;;;;;;4113850;28;20023;-64
2023/08/29 00:59:18;;;;;;;5.45;2.90;;;22.90;95.40;;;;;;4114582;28;20105;-65
2023/08/29 01:01:19;;;;;;;4.40;2.53;;;22.90;95.50;;;;;;4113657;28;20034;-65
2023/08/29 01:03:21;;;;;;;5.07;2.83;;;22.80;95.50;;;;;;4114688;28;20030;-65
2023/08/29 01:05:23;;;;;;;5.43;3.22;;;22.80;95.60;;;;;;4113878;28;20064;-65
2023/08/29 01:07:24;;;;;;;5.05;3.25;;;22.80;95.60;;;;;;4114557;28;20375;-66
2023/08/29 01:09:25;;;;;;;5.90;3.30;;;22.80;95.80;;;;;;4113225;28;20491;-66
2023/08/29 01:11:47;;;;;;;6.28;3.20;;;22.70;95.80;;;;;;4113271;28;20039;-65
2023/08/29 01:13:57;;;;;;;8.85;2.50;;;22.60;96.00;;;;;;4113649;28;20031;-65
2023/08/29 01:16:01;;;;;;;9.27;2.88;;;22.70;96.00;;;;;;4113541;28;20035;-66
2023/08/29 01:18:05;;;;;;;10.10;3.13;;;22.70;96.00;;;;;;4113845;28;20181;-66
2023/08/29 01:20:08;;;;;;;6.75;3.03;;;22.60;96.10;;;;;;4113869;28;20043;-63
2023/08/29 01:22:18;;;;;;;8.82;3.03;;;22.50;96.30;;;;;;4113882;28;20078;-66
2023/08/29 01:24:29;;;;;;;7.30;2.90;;;22.30;96.60;;;;;;4113746;28;20142;-65
2023/08/29 01:26:31;;;;;;;4.97;3.30;;;22.20;96.90;;;;;;4113176;28;20840;-66
2023/08/29 01:28:33;;;;;;;8.50;3.22;;;22.10;97.10;;;;;;4112709;28;20059;-66
2023/08/29 01:30:38;;;;;;;10.57;3.88;;;22.00;97.20;;;;;;4113471;28;20482;-65
2023/08/29 01:32:40;;;;;;;5.60;2.97;;;22.00;97.60;;;;;;4113281;28;20086;-61
2023/08/29 01:34:43;;;;;;;7.53;4.10;;;21.90;97.70;;;;;;4113544;28;20488;-66
2023/08/29 01:36:44;;;;;;;3.83;3.30;;;21.80;97.90;;;;;;4112890;28;20039;-65
2023/08/29 01:38:45;;;;;;;6.07;3.28;;;21.70;98.10;;;;;;4111991;28;20052;-63
2023/08/29 01:40:46;;;;;;;4.13;3.72;;;21.70;98.30;;;;;;4112655;28;20051;-66
2023/08/29 01:42:47;;;;;;;6.65;2.80;;;21.60;98.40;;;;;;4113520;28;20546;-65
2023/08/29 01:46:59;;;;;;;6.35;3.05;;;21.70;98.90;;;;;;4181748;23;20530;-65
2023/08/29 01:49:04;;;;;;;7.20;3.55;;;21.80;98.50;;;;;;4080870;29;20091;-65
2023/08/29 01:51:06;;;;;;;6.78;3.40;;;21.80;98.60;;;;;;4080397;29;20483;-65
2023/08/29 01:53:08;;;;;;;6.55;3.58;;;21.70;98.70;;;;;;4079363;29;20043;-64
2023/08/29 01:55:09;;;;;;;3.65;2.90;;;21.70;98.70;;;;;;4082280;29;20035;-66
2023/08/29 01:57:12;;;;;;;7.70;3.15;;;21.70;98.90;;;;;;4081042;29;20103;-64
2023/08/29 01:59:13;;;;;;;9.63;3.53;;;21.60;99.10;;;;;;4082095;29;20043;-66
2023/08/29 02:01:14;;;;;;;6.38;3.70;;;21.50;99.30;;;;;;4080514;29;20564;-63
2023/08/29 02:03:16;;;;;;;4.50;3.30;;;21.40;99.60;;;;;;4081833;29;20562;-66
2023/08/29 02:05:17;;;;;;;7.72;3.92;;;21.30;99.90;;;;;;4081183;29;20098;-65
2023/08/29 02:07:18;;;;;;;8.40;3.92;;;21.20;99.90;;;;;;4081311;29;20138;-65
2023/08/29 02:09:19;;;;;;;5.32;3.30;;;21.10;99.90;;;;;;4081485;29;20044;-66
2023/08/29 02:11:20;;;;;;;8.95;3.92;;;21.10;99.90;;;;;;4080774;29;20043;-65
2023/08/29 02:13:21;;;;;;;4.88;3.22;;;21.10;99.90;;;;;;4081694;29;20032;-63
2023/08/29 02:15:22;;;;;;;6.32;3.08;;;21.10;99.90;;;;;;4080639;29;20157;-63
2023/08/29 02:17:23;;;;;;;6.00;3.67;;;21.10;99.90;;;;;;4081811;29;20051;-62
2023/08/29 02:19:26;;;;;;;6.50;3.38;;;21.20;99.90;;;;;;4080655;29;20031;-66
2023/08/29 02:21:27;;;;;;;8.43;3.30;;;21.20;99.90;;;;;;4081639;29;20718;-63
2023/08/29 02:23:28;;;;;;;6.72;3.47;;;21.20;99.90;;;;;;4080571;29;20444;-66
2023/08/29 02:25:29;;;;;;;5.00;3.50;;;21.30;99.90;;;;;;4081700;29;20538;-61
2023/08/29 02:27:32;;;;;;;6.35;3.22;;;21.30;99.90;;;;;;4080383;29;20035;-61
2023/08/29 02:29:33;;;;;;;5.82;3.30;;;21.40;99.90;;;;;;4081263;29;20154;-60
2023/08/29 02:31:35;;;;;;;7.13;4.07;;;21.40;99.90;;;;;;4080128;29;20099;-61
2023/08/29 02:33:38;;;;;;;6.60;3.90;;;21.40;99.90;;;;;;4080653;29;20040;-62
2023/08/29 02:35:39;;;;;;;6.22;3.38;;;21.50;99.90;;;;;;4080486;29;20087;-62
2023/08/29 02:37:40;;;;;;;5.82;3.10;;;21.50;99.90;;;;;;4080968;29;20031;-59
2023/08/29 02:39:41;;;;;;;4.30;3.20;;;21.50;99.90;;;;;;4080988;29;20490;-64
2023/08/29 02:41:42;;;;;;;5.32;3.15;;;21.50;99.90;;;;;;4078909;29;20138;-64
2023/08/29 02:43:44;;;;;;;9.32;3.33;;;21.50;99.90;;;;;;4081096;29;20036;-62
2023/08/29 02:45:45;;;;;;;7.95;4.20;;;21.40;99.90;;;;;;4079961;29;20040;-63
2023/08/29 02:47:46;;;;;;;7.53;3.08;;;21.40;99.90;;;;;;4081418;29;20433;-65
2023/08/29 02:49:47;;;;;;;7.32;3.47;;;21.40;99.90;;;;;;4080108;29;20024;-66
2023/08/29 02:51:48;;;;;;;5.30;3.40;;;21.30;99.90;;;;;;4081333;29;20091;-63
2023/08/29 02:53:49;;;;;;;6.18;3.85;;;21.30;99.90;;;;;;4080135;29;20522;-65
2023/08/29 02:55:52;;;;;;;7.85;3.78;;;21.30;99.90;;;;;;4081334;29;20090;-65
2023/08/29 02:57:53;;;;;;;5.60;3.10;;;21.30;99.90;;;;;;4078789;29;20075;-61
2023/08/29 02:59:54;;;;;;;7.03;2.88;;;21.30;99.90;;;;;;4080327;29;20048;-62
2023/08/29 03:01:55;;;;;;;4.90;3.05;;;21.30;99.90;;;;;;4079909;29;20043;-65
2023/08/29 03:03:56;;;;;;;6.78;3.55;;;21.30;99.90;;;;;;4081154;29;20310;-62
2023/08/29 03:05:59;;;;;;;6.40;3.50;;;21.40;99.90;;;;;;4080265;29;20028;-65
2023/08/29 03:08:03;;;;;;;8.25;3.72;;;21.40;99.90;;;;;;4080628;29;20040;-64
2023/08/29 03:10:05;;;;;;;5.75;3.28;;;21.40;99.90;;;;;;4079980;29;20040;-62
2023/08/29 03:12:07;;;;;;;5.60;3.20;;;21.50;99.90;;;;;;4080190;29;20039;-64
2023/08/29 03:14:08;;;;;;;9.15;3.90;;;21.50;99.90;;;;;;4080453;29;20167;-65
2023/08/29 03:16:14;;;;;;;7.18;2.95;;;21.40;99.90;;;;;;4079443;29;20044;-64
2023/08/29 03:18:15;;;;;;;6.15;3.33;;;21.40;99.90;;;;;;4080606;29;20040;-66
2023/08/29 03:20:16;;;;;;;6.55;3.20;;;21.40;99.90;;;;;;4079663;29;20051;-60
2023/08/29 03:22:17;;;;;;;5.97;3.53;;;21.40;99.90;;;;;;4080625;29;20349;-65
2023/08/29 03:24:18;;;;;;;4.68;3.42;;;21.40;99.90;;;;;;4079766;29;20096;-64
2023/08/29 03:26:19;;;;;;;6.43;3.05;;;21.40;99.90;;;;;;4080201;29;20491;-64
2023/08/29 03:28:20;;;;;;;6.10;3.03;;;21.40;99.90;;;;;;4079716;29;20388;-62
2023/08/29 03:30:21;;;;;;;13.35;3.47;;;21.50;99.90;;;;;;4080550;29;20099;-65
2023/08/29 03:32:23;;;;;;;6.03;3.22;;;21.50;99.90;;;;;;4079793;29;20036;-64
2023/08/29 03:34:24;;;;;;;6.15;3.40;;;21.60;99.90;;;;;;4081055;29;20035;-66
2023/08/29 03:36:25;;;;;;;6.78;3.20;;;21.60;99.90;;;;;;4079723;29;20051;-63
2023/08/29 03:38:26;;;;;;;9.30;3.47;;;21.50;99.90;;;;;;4080590;29;20020;-62
2023/08/29 03:40:27;;;;;;;7.25;3.28;;;21.60;99.90;;;;;;4079489;29;20099;-65
2023/08/29 03:42:28;;;;;;;9.30;2.75;;;21.60;99.90;;;;;;4080112;29;20389;-64
2023/08/29 03:44:29;;;;;;;8.73;3.28;;;21.60;99.90;;;;;;4080186;29;20032;-62
2023/08/29 03:46:31;;;;;;;5.50;2.97;;;21.50;99.90;;;;;;4079102;29;20103;-60
2023/08/29 03:48:33;;;;;;;5.55;3.55;;;21.50;99.90;;;;;;4080435;29;20048;-60
2023/08/29 03:50:34;;;;;;;6.10;3.28;;;21.60;99.90;;;;;;4079534;29;20558;-61
2023/08/29 03:52:35;;;;;;;6.53;3.33;;;21.50;99.90;;;;;;4080399;29;20040;-61
2023/08/29 03:54:36;;;;;;;8.32;3.40;;;21.50;99.90;;;;;;4077969;29;20031;-62
2023/08/29 03:56:38;;;;;;;7.65;3.78;;;21.50;99.90;;;;;;4080145;29;20044;-64
2023/08/29 03:58:39;;;;;;;7.40;3.67;;;21.50;99.90;;;;;;4079337;29;20027;-62
2023/08/29 04:00:41;;;;;;;9.68;3.78;;;21.60;99.90;;;;;;4080553;29;20091;-60
2023/08/29 04:02:43;;;;;;;11.43;3.63;;;21.80;99.70;;;;;;4079295;29;20035;-64
2023/08/29 04:04:44;;;;;;;13.25;3.58;;;21.90;99.50;;;;;;4080583;29;20028;-65
2023/08/29 04:06:45;;;;;;;6.03;3.10;;;22.10;99.30;;;;;;4079527;29;20028;-63
2023/08/29 04:08:46;;;;;;;11.65;3.17;;;22.30;99.10;;;;;;4080123;29;20645;-62
2023/08/29 04:10:48;;;;;;;13.15;3.30;;;22.40;98.90;;;;;;4080386;29;20028;-60
2023/08/29 04:12:49;;;;;;;7.70;3.25;;;22.50;98.70;;;;;;4082217;29;20052;-60
2023/08/29 04:14:51;;;;;;;6.65;3.20;;;22.70;98.50;;;;;;4082914;29;20020;-64
2023/08/29 04:16:52;;;;;;;8.57;3.40;;;22.80;98.20;;;;;;4082358;29;20036;-61
2023/08/29 04:18:53;;;;;;;7.13;3.25;;;22.90;98.10;;;;;;4083322;29;20090;-60
2023/08/29 04:20:54;;;;;;;8.75;3.22;;;23.10;97.80;;;;;;4082277;29;20452;-63
2023/08/29 04:22:55;;;;;;;6.25;3.50;;;23.10;97.80;;;;;;4083411;29;20031;-64
2023/08/29 04:24:57;;;;;;;8.02;3.70;;;23.20;97.80;;;;;;4082267;29;20031;-62
2023/08/29 04:26:58;;;;;;;6.10;3.17;;;23.30;97.60;;;;;;4083207;29;20174;-66
2023/08/29 04:28:59;;;;;;;7.22;3.17;;;23.40;97.40;;;;;;4081608;29;20106;-64
2023/08/29 04:31:11;;;;;;;11.15;3.53;;;23.70;97.20;;;;;;4082807;29;20087;-64
2023/08/29 04:33:12;;;;;;;10.15;3.45;;;23.80;96.90;;;;;;4082037;29;20044;-63
2023/08/29 04:35:13;;;;;;;9.13;3.65;;;24.10;96.80;;;;;;4082745;29;20476;-64
2023/08/29 04:37:15;;;;;;;7.03;3.33;;;24.40;96.60;;;;;;4082103;29;20084;-65
2023/08/29 04:39:17;;;;;;;4.75;2.58;;;24.60;96.20;;;;;;4083335;29;20035;-61
2023/08/29 04:41:18;;;;;;;8.05;3.22;;;24.90;95.90;;;;;;4082107;29;20059;-65
2023/08/29 04:43:20;;;;;;;13.02;3.22;;;25.20;95.60;;;;;;4082747;29;20476;-65
2023/08/29 04:45:23;;;;;;;11.43;3.33;;;25.40;95.30;;;;;;4081972;29;20110;-66
2023/08/29 04:47:24;;;;;;;6.28;3.20;;;25.50;95.20;;;;;;4082384;29;20056;-64
2023/08/29 04:49:25;;;;;;;9.18;3.70;;;25.40;95.30;;;;;;4082736;29;20027;-65
2023/08/29 04:51:26;;;;;;;11.73;3.40;;;25.60;95.00;;;;;;4081871;29;20040;-63
2023/08/29 04:53:28;;;;;;;7.93;2.60;;;25.50;94.40;;;;;;4082537;29;20571;-62
2023/08/29 04:55:29;;;;;;;8.90;3.10;;;25.40;94.40;;;;;;4081849;29;20381;-65
2023/08/29 04:57:30;;;;;;;3.97;2.55;;;25.30;94.20;;;;;;4082518;29;20546;-62
2023/08/29 04:59:31;;;;;;;6.93;3.20;;;25.40;94.10;;;;;;4081309;29;20102;-61
2023/08/29 05:01:33;;;;;;;9.55;3.50;;;25.50;94.00;;;;;;4082630;29;20119;-60
2023/08/29 05:03:34;;;;;;;8.45;3.60;;;25.50;93.80;;;;;;4081740;29;20031;-59
2023/08/29 05:05:35;;;;;;;7.03;3.88;;;25.50;93.80;;;;;;4082615;29;20036;-65
2023/08/29 05:07:36;;;;;;;8.35;3.03;;;25.60;93.70;;;;;;4081388;29;20492;-66
2023/08/29 05:09:38;;;;;;;7.00;3.65;;;25.60;93.60;;;;;;4082822;29;20043;-60
2023/08/29 05:11:39;;;;;;;9.02;3.20;;;25.60;93.70;;;;;;4081444;29;20449;-59
2023/08/29 05:13:40;;;;;;;6.97;2.83;;;25.80;93.60;;;;;;4082807;29;20047;-61
2023/08/29 05:15:41;;;;;;;5.43;3.40;;;25.90;93.50;;;;;;4081652;29;20028;-65
2023/08/29 05:17:44;;;;;;;7.60;3.28;;;25.80;93.50;;;;;;4081928;29;20035;-66
2023/08/29 05:19:45;;;;;;;8.48;3.50;;;25.70;93.50;;;;;;4082080;29;20032;-66
2023/08/29 05:21:47;;;;;;;9.77;2.85;;;26.00;93.50;;;;;;4081200;29;20048;-65
2023/08/29 05:23:48;;;;;;;6.35;3.10;;;25.90;93.40;;;;;;4082265;29;20715;-65
2023/08/29 05:25:49;;;;;;;7.70;3.17;;;25.90;93.50;;;;;;4080984;29;20043;-63
2023/08/29 05:27:50;;;;;;;4.78;2.92;;;26.00;93.50;;;;;;4082675;29;20036;-64
2023/08/29 05:29:51;;;;;;;6.00;3.20;;;26.10;93.40;;;;;;4081680;29;20384;-65
2023/08/29 05:31:53;;;;;;;8.55;2.95;;;26.20;93.30;;;;;;4082448;29;20031;-65
2023/08/29 05:33:54;;;;;;;9.80;3.08;;;26.30;93.20;;;;;;4081020;29;20532;-63
2023/08/29 05:35:55;;;;;;;9.30;3.60;;;26.50;92.70;;;;;;4082398;29;20043;-65
2023/08/29 05:37:56;;;;;;;6.35;3.20;;;26.80;92.90;;;;;;4081322;29;20035;-64
2023/08/29 05:39:57;;;;;;;11.00;2.80;;;27.60;92.10;;;;;;4082585;29;20035;-67
2023/08/29 05:41:58;;;;;;;6.90;2.90;;;28.30;91.50;;;;;;4081079;29;20055;-67
2023/08/29 05:43:59;;;;;;;11.93;3.05;;;28.80;90.90;;;;;;4081806;29;20032;-66
2023/08/29 05:46:01;;;;;;;6.10;2.85;;;28.90;90.40;;;;;;4080085;29;20475;-66
2023/08/29 05:48:03;;;;;;;23.75;3.67;;;28.90;90.10;;;;;;4081354;29;20027;-65
2023/08/29 05:50:05;;;;;;;10.38;3.33;;;29.10;90.00;;;;;;4081329;29;20405;-65
2023/08/29 05:52:06;;;;;;;8.55;2.55;;;29.70;89.20;;;;;;4080925;29;20120;-66
2023/08/29 05:54:07;;;;;;;7.20;2.67;;;29.60;88.00;;;;;;4081246;29;20443;-63
2023/08/29 05:56:08;;;;;;;4.93;2.60;;;29.30;87.80;;;;;;4081051;29;20028;-65
2023/08/29 05:58:09;;;;;;;5.15;2.88;;;29.00;87.80;;;;;;4081791;29;20504;-64
2023/08/29 06:00:13;;;;;;;5.35;2.33;;;28.90;88.30;;;;;;4080581;29;20110;-66
2023/08/29 06:02:15;;;;;;;4.32;2.75;;;28.80;88.30;;;;;;4081174;29;20052;-65
2023/08/29 06:04:16;;;;;;;9.82;3.10;;;28.80;88.70;;;;;;4080539;29;20079;-62
2023/08/29 06:06:17;;;;;;;7.07;2.58;;;28.70;88.00;;;;;;4081645;29;20043;-63
2023/08/29 06:08:18;;;;;;;8.70;2.65;;;28.50;88.10;;;;;;4080462;29;20551;-66
2023/08/29 06:10:19;;;;;;;7.38;2.40;;;28.40;88.10;;;;;;4081813;29;20087;-66
2023/08/29 06:12:20;;;;;;;5.35;2.97;;;28.30;88.20;;;;;;4080578;29;20079;-65
2023/08/29 06:14:21;;;;;;;4.65;2.67;;;28.20;88.30;;;;;;4081406;29;20040;-65
2023/08/29 06:16:22;;;;;;;7.70;3.20;;;28.20;88.10;;;;;;4080470;29;20031;-65
2023/08/29 06:18:24;;;;;;;9.63;3.50;;;28.20;88.60;;;;;;4080782;29;20365;-66
2023/08/29 06:20:25;;;;;;;5.47;2.53;;;28.30;88.50;;;;;;4080863;29;20016;-66
2023/08/29 06:22:26;;;;;;;9.82;3.15;;;28.30;88.10;;;;;;4080572;29;20534;-67
2023/08/29 06:24:27;;;;;;;6.05;2.67;;;28.50;87.70;;;;;;4080645;29;20047;-66
2023/08/29 06:26:28;;;;;;;7.60;2.28;;;28.50;87.50;;;;;;4079989;29;20610;-65
2023/08/29 06:28:31;;;;;;;4.10;2.75;;;28.50;87.00;;;;;;4081371;29;20110;-63
2023/08/29 06:30:35;;;;;;;3.38;2.30;;;28.40;87.10;;;;;;4079960;29;20416;-67
2023/08/29 06:32:36;;;;;;;6.18;2.42;;;28.30;86.70;;;;;;4080322;29;20035;-65
2023/08/29 06:34:37;;;;;;;6.03;2.47;;;28.30;86.90;;;;;;4079579;29;20039;-69
2023/08/29 06:36:38;;;;;;;3.33;2.20;;;28.30;86.80;;;;;;4080644;29;20036;-64
2023/08/29 06:38:40;;;;;;;4.20;2.33;;;28.10;87.10;;;;;;4079602;29;20087;-65
2023/08/29 06:40:41;;;;;;;7.72;2.60;;;28.00;87.10;;;;;;4081232;29;20491;-66
2023/08/29 06:42:42;;;;;;;6.00;3.38;;;27.90;87.30;;;;;;4077968;29;20051;-62
2023/08/29 06:44:43;;;;;;;4.60;3.00;;;28.00;87.30;;;;;;4080681;29;20032;-65
2023/08/29 06:46:44;;;;;;;7.35;2.35;;;27.90;87.20;;;;;;4079563;29;20515;-63
2023/08/29 06:48:45;;;;;;;8.90;3.20;;;27.90;87.50;;;;;;4080766;29;20028;-66
2023/08/29 06:50:47;;;;;;;7.55;3.15;;;28.00;87.60;;;;;;4080133;29;20043;-63
2023/08/29 06:52:48;;;;;;;7.15;2.97;;;28.00;87.60;;;;;;4080373;29;20024;-65
2023/08/29 06:54:49;;;;;;;7.40;3.53;;;28.20;87.40;;;;;;4080258;29;20094;-66
2023/08/29 06:56:50;;;;;;;9.98;3.30;;;28.40;86.90;;;;;;4079853;29;20027;-63
2023/08/29 06:58:52;;;;;;;6.15;2.88;;;28.40;86.50;;;;;;4080348;29;20115;-66
2023/08/29 07:00:54;;;;;;;9.45;2.25;;;28.50;86.60;;;;;;4079682;29;20106;-65
2023/08/29 07:02:55;;;;;;;5.57;2.60;;;28.70;86.20;;;;;;4080606;29;20059;-65
2023/08/29 07:04:56;;;;;;;9.85;2.88;;;28.70;85.90;;;;;;4079733;29;20104;-65
2023/08/29 07:06:57;;;;;;;5.03;2.78;;;28.80;86.00;;;;;;4080740;29;20079;-64
2023/08/29 07:08:58;;;;;;;11.60;3.53;;;28.90;86.10;;;;;;4079959;29;20031;-64
2023/08/29 07:10:59;;;;;;;10.77;2.65;;;29.00;85.80;;;;;;4080984;29;20032;-64
2023/08/29 07:13:01;;;;;;;4.20;2.78;;;29.00;85.50;;;;;;4079425;29;20036;-67
2023/08/29 07:15:02;;;;;;;5.07;2.70;;;29.00;85.20;;;;;;4080703;29;20103;-65
2023/08/29 07:17:03;;;;;;;5.90;2.67;;;29.10;85.20;;;;;;4079481;29;20024;-65
2023/08/29 07:19:05;;;;;;;5.43;2.72;;;29.20;85.10;;;;;;4080238;29;20039;-66
2023/08/29 07:21:06;;;;;;;7.80;2.50;;;29.40;84.70;;;;;;4079409;29;20051;-64
2023/08/29 07:23:08;;;;;;;5.72;2.50;;;29.30;84.00;;;;;;4079958;29;20039;-63
2023/08/29 07:25:10;;;;;;;4.95;2.42;;;29.30;84.30;;;;;;4080063;29;20094;-63
2023/08/29 07:27:11;;;;;;;4.43;2.33;;;29.50;84.10;;;;;;4079261;29;20433;-66
2023/08/29 07:29:12;;;;;;;4.35;2.70;;;29.50;83.80;;;;;;4080048;29;20357;-64
2023/08/29 07:31:13;;;;;;;3.85;2.17;;;29.60;83.40;;;;;;4079007;29;20483;-66
2023/08/29 07:33:15;;;;;;;8.55;2.65;;;29.70;83.10;;;;;;4080651;29;20385;-66
2023/08/29 07:35:16;;;;;;;4.47;2.40;;;29.70;82.80;;;;;;4079475;29;20039;-62
2023/08/29 07:37:17;;;;;;;5.55;2.28;;;29.70;82.60;;;;;;4080639;29;20032;-66
2023/08/29 07:39:20;;;;;;;5.45;2.25;;;29.70;82.40;;;;;;4079427;29;20087;-62
2023/08/29 07:41:21;;;;;;;6.78;2.38;;;29.80;82.30;;;;;;4080600;29;20028;-65
2023/08/29 07:43:22;;;;;;;8.38;2.28;;;30.00;82.10;;;;;;4079261;29;20028;-65
2023/08/29 07:45:23;;;;;;;8.30;2.55;;;30.00;81.90;;;;;;4081965;29;20036;-67
2023/08/29 07:47:24;;;;;;;10.00;2.67;;;29.90;82.00;;;;;;4082574;29;20055;-67
2023/08/29 07:49:26;;;;;;;5.88;2.10;;;30.00;82.30;;;;;;4083394;29;20027;-65
2023/08/29 07:51:27;;;;;;;5.57;2.33;;;30.00;81.70;;;;;;4083060;29;20032;-65
2023/08/29 07:53:28;;;;;;;4.53;2.50;;;30.00;81.80;;;;;;4083305;29;20032;-67
2023/08/29 07:55:29;;;;;;;6.20;2.70;;;30.00;82.20;;;;;;4082952;29;20035;-67
2023/08/29 07:57:30;;;;;;;5.55;2.65;;;29.90;81.80;;;;;;4082642;29;20039;-66
2023/08/29 07:59:31;;;;;;;3.47;2.13;;;29.90;81.50;;;;;;4083647;29;20035;-67
2023/08/29 08:01:32;;;;;;;5.55;2.53;;;29.90;81.70;;;;;;4082209;29;20055;-67
2023/08/29 08:03:34;;;;;;;4.93;2.58;;;29.70;81.90;;;;;;4083073;29;20047;-64
2023/08/29 08:05:35;;;;;;;4.50;2.28;;;29.60;82.50;;;;;;4082389;29;20346;-65
2023/08/29 08:07:41;;;;;;;5.00;2.83;;;29.60;82.80;;;;;;4083317;29;20061;-65
2023/08/29 08:09:42;;;;;;;4.95;2.85;;;29.70;83.10;;;;;;4082372;29;20090;-67
2023/08/29 08:11:43;;;;;;;6.47;2.83;;;29.50;82.80;;;;;;4082798;29;20040;-67
2023/08/29 08:13:44;;;;;;;4.95;2.78;;;29.50;83.00;;;;;;4082270;29;20353;-65
2023/08/29 08:15:45;;;;;;;6.22;2.80;;;29.50;83.10;;;;;;4083350;29;20095;-67
2023/08/29 08:17:47;;;;;;;3.53;2.13;;;29.50;83.30;;;;;;4082100;29;20023;-65
2023/08/29 08:19:48;;;;;;;8.23;2.75;;;29.60;83.20;;;;;;4082923;29;20071;-65
2023/08/29 08:21:49;;;;;;;7.85;2.75;;;29.70;83.00;;;;;;4082461;29;20086;-66
2023/08/29 08:23:50;;;;;;;4.43;2.22;;;29.80;83.20;;;;;;4082697;29;20096;-67
2023/08/29 08:25:51;;;;;;;5.85;2.88;;;29.90;82.90;;;;;;4082296;29;20472;-60
2023/08/29 08:27:53;;;;;;;3.33;2.40;;;29.80;82.90;;;;;;4082287;29;20099;-68
2023/08/29 08:29:54;;;;;;;7.47;2.90;;;29.90;82.90;;;;;;4082734;29;20543;-64
2023/08/29 08:31:55;;;;;;;3.20;2.53;;;30.00;82.60;;;;;;4080403;29;20123;-63
2023/08/29 08:33:56;;;;;;;6.07;2.72;;;30.00;82.70;;;;;;4082954;29;21079;-67
2023/08/29 08:35:57;;;;;;;8.25;2.45;;;30.10;82.80;;;;;;4082098;29;20873;-67
2023/08/29 08:37:59;;;;;;;5.10;2.40;;;30.20;82.60;;;;;;4082859;29;20461;-61
2023/08/29 08:40:01;;;;;;;8.30;2.78;;;30.50;81.50;;;;;;4081820;29;20098;-63
2023/08/29 08:42:03;;;;;;;4.97;2.30;;;30.60;80.20;;;;;;4083057;29;20051;-64
2023/08/29 08:44:08;;;;;;;6.68;2.20;;;30.80;79.70;;;;;;4081870;29;20118;-65
2023/08/29 08:46:10;;;;;;;5.13;2.65;;;31.00;79.90;;;;;;4082779;29;20118;-65
2023/08/29 08:48:12;;;;;;;5.13;2.80;;;31.30;79.20;;;;;;4081353;29;20032;-64
2023/08/29 08:50:13;;;;;;;6.80;3.00;;;31.30;79.20;;;;;;4082895;29;20051;-67
2023/08/29 08:52:16;;;;;;;3.55;2.53;;;31.30;79.30;;;;;;4081861;29;20492;-60
2023/08/29 08:54:18;;;;;;;7.55;3.00;;;31.30;79.20;;;;;;4082578;29;20064;-65
2023/08/29 08:56:20;;;;;;;4.20;2.70;;;31.40;79.30;;;;;;4080015;29;20100;-65
2023/08/29 08:58:21;;;;;;;10.45;2.63;;;31.40;79.00;;;;;;4081331;29;20087;-65
2023/08/29 09:00:22;;;;;;;5.85;2.72;;;31.50;79.10;;;;;;4081856;29;20484;-61
2023/08/29 09:02:24;;;;;;;4.90;2.65;;;31.60;78.90;;;;;;4081573;29;20480;-62
2023/08/29 09:04:26;;;;;;;10.88;3.55;;;31.60;78.00;;;;;;4082522;29;20031;-66
2023/08/29 09:06:28;;;;;;;6.18;2.67;;;31.60;77.40;;;;;;4081253;29;20554;-61
2023/08/29 09:08:31;;;;;;;7.78;2.85;;;31.50;77.90;;;;;;4082406;29;20032;-65
2023/08/29 09:10:33;;;;;;;9.75;2.50;;;31.50;78.20;;;;;;4079751;29;20100;-61
2023/08/29 09:12:34;;;;;;;8.10;2.80;;;31.60;78.30;;;;;;4082731;29;20024;-64
2023/08/29 09:14:41;;;;;;;5.60;2.78;;;31.70;78.20;;;;;;4080911;29;20043;-62
2023/08/29 09:16:42;;;;;;;8.20;2.78;;;31.70;78.10;;;;;;4082281;29;20119;-65
2023/08/29 09:18:44;;;;;;;8.52;3.10;;;31.80;78.10;;;;;;4081372;29;20046;-62
2023/08/29 09:20:46;;;;;;;9.00;2.50;;;31.70;77.40;;;;;;4082509;29;20027;-65
2023/08/29 09:22:48;;;;;;;8.57;2.78;;;31.90;77.80;;;;;;4081334;29;20051;-62
2023/08/29 09:24:49;;;;;;;3.35;2.75;;;31.90;77.40;;;;;;4082052;29;20047;-62
2023/08/29 09:26:50;;;;;;;8.65;2.17;;;31.90;77.20;;;;;;4081318;29;20032;-62
2023/08/29 09:28:51;;;;;;;7.07;2.50;;;31.80;76.70;;;;;;4081914;29;20107;-63
2023/08/29 09:30:53;;;;;;;11.02;2.83;;;32.00;76.90;;;;;;4080914;29;20043;-65
2023/08/29 09:32:54;;;;;;;12.35;2.58;;;32.00;77.10;;;;;;4081557;29;20095;-63
2023/08/29 09:34:58;;;;;;;7.03;2.30;;;32.00;76.30;;;;;;4081703;29;20063;-66
2023/08/29 09:37:03;;;;;;;6.00;2.50;;;32.20;76.10;;;;;;4080543;29;20047;-64
2023/08/29 09:39:11;;;;;;;4.13;2.33;;;32.30;75.00;;;;;;4081879;29;20078;-63
2023/08/29 09:41:17;;;;;;;3.30;2.33;;;32.40;75.00;;;;;;4080986;29;20044;-65
2023/08/29 09:43:18;;;;;;;8.52;2.40;;;32.40;73.70;;;;;;4081615;29;20051;-61
2023/08/29 09:45:19;;;;;;;13.73;2.53;;;32.30;73.30;;;;;;4080751;29;20036;-65
2023/08/29 09:47:23;;;;;;;6.65;2.20;;;32.40;72.70;;;;;;4081900;29;20114;-62
2023/08/29 09:49:32;;;;;;;10.30;2.40;;;32.50;72.60;;;;;;4080947;29;20310;-63
2023/08/29 09:51:34;;;;;;;3.25;1.90;;;32.40;72.20;;;;;;4082244;29;20114;-64
2023/08/29 09:53:35;;;;;;;4.50;2.28;;;32.40;72.40;;;;;;4080986;29;20626;-63
2023/08/29 09:55:43;;;;;;;9.50;2.70;;;32.30;72.60;;;;;;4082065;29;20056;-63
2023/08/29 09:57:47;;;;;;;2.92;2.13;;;32.30;72.50;;;;;;4080796;29;20420;-63
2023/08/29 09:59:51;;;;;;;5.68;2.22;;;32.30;73.10;;;;;;4081925;29;21097;-64
2023/08/29 10:01:53;;;;;;;9.55;2.45;;;32.30;72.50;;;;;;4080492;29;20040;-61
2023/08/29 10:04:04;;;;;;;7.53;2.83;;;32.30;73.00;;;;;;4081500;29;20036;-61
2023/08/29 10:06:07;;;;;;;6.55;2.25;;;32.40;72.50;;;;;;4080433;29;20365;-64
2023/08/29 10:08:11;;;;;;;7.32;2.00;;;32.50;72.60;;;;;;4080321;29;20043;-59
2023/08/29 10:10:12;;;;;;;4.22;2.45;;;32.70;72.00;;;;;;4080023;29;20071;-65
2023/08/29 10:12:14;;;;;;;6.10;2.40;;;32.80;71.90;;;;;;4081011;29;20104;-62
2023/08/29 10:14:17;;;;;;;6.32;2.65;;;32.80;70.70;;;;;;4080962;29;20036;-61
2023/08/29 10:16:19;;;;;;;4.75;3.15;;;32.80;70.70;;;;;;4080873;29;20031;-63
2023/08/29 10:18:22;;;;;;;7.70;2.40;;;32.80;70.70;;;;;;4080924;29;20024;-62
2023/08/29 10:20:24;;;;;;;6.85;2.22;;;32.80;71.00;;;;;;4080672;29;20547;-62
2023/08/29 10:22:29;;;;;;;6.25;2.40;;;32.80;70.70;;;;;;4081037;29;20398;-61
2023/08/29 10:24:32;;;;;;;2.28;1.98;;;32.80;70.30;;;;;;4080184;29;20027;-61
2023/08/29 10:26:34;;;;;;;6.50;2.50;;;32.80;70.70;;;;;;4081417;29;20028;-64
2023/08/29 10:28:38;;;;;;;7.03;2.60;;;32.80;70.80;;;;;;4080171;29;20040;-62
2023/08/29 10:30:44;;;;;;;3.65;2.42;;;32.80;70.50;;;;;;4081206;29;20646;-63
2023/08/29 10:32:46;;;;;;;9.00;2.58;;;32.70;70.50;;;;;;4080033;29;20039;-60
2023/08/29 10:34:49;;;;;;;5.97;2.50;;;32.70;70.70;;;;;;4080794;29;20047;-63